Terminal Aerodrome Forecast
Issued by NWS Albany, NY

Home | Current Version | Previous Version | Text Only | Print | Product List | Glossary On
Versions: 1 2 3 4 5 6 7 8 9 10 11 12 13 14 15 16 17 18 19 20 21 22 23 24 25 26 27 28 29 30 31 32
000
FTUS41 KALY 290041 AAA
TAFALB
TAF AMD
KALB 290041Z 2901/2924 33007KT 3SM -SHSN BR SCT025 OVC040
      TEMPO 2901/2902 1SM -SHSN BR BKN025 OVC040
     FM290230 32005KT P6SM BKN040
     FM291300 31007KT P6SM FEW050
     FM292000 24005KT P6SM FEW250=

USA.gov is the U.S. government's official web portal to all federal, state and local government web resources and services.